BAW8R EGCC-EGPH
Flight info
| Callsign | BAW8R |
|---|---|
| Flight time | N/A |
| Altitude | 24000 |
| Route | DESIG DCT DOMIG DCT ULSAX N601 INPIP |
| Aircraft | A20N/M-SDE2E3FGHIRWXY/LB1 |
Departure
| Time | N/A |
|---|---|
| Airport | Manchester Airport (EGCC) |
Arrival
| Time | 2026-04-26 01:20 |
|---|---|
| Airport | Edinburgh Airport (EGPH) |
| Time | Latitude | Longitude | Altitude | Speed | Heading |
|---|---|---|---|---|---|
| 2026-04-26 00:50 | 53.72546 | -2.08406 | 15363 ft | 362 kts | 326° |
| 2026-04-26 00:50 | 53.74707 | -2.10506 | 15975 ft | 364 kts | 333° |
| 2026-04-26 00:50 | 53.77071 | -2.12171 | 16612 ft | 367 kts | 337° |
| 2026-04-26 00:50 | 53.79451 | -2.13767 | 17261 ft | 369 kts | 336° |
| 2026-04-26 00:51 | 53.81820 | -2.15379 | 17911 ft | 371 kts | 336° |
| 2026-04-26 00:51 | 53.84224 | -2.17023 | 18582 ft | 374 kts | 336° |
| 2026-04-26 00:51 | 53.86644 | -2.18679 | 19179 ft | 377 kts | 336° |
| 2026-04-26 00:51 | 53.89091 | -2.20355 | 19785 ft | 380 kts | 336° |
| 2026-04-26 00:52 | 53.91532 | -2.22028 | 20383 ft | 383 kts | 336° |
| 2026-04-26 00:52 | 53.94049 | -2.23755 | 21008 ft | 387 kts | 336° |
| 2026-04-26 00:52 | 53.96521 | -2.25454 | 21644 ft | 389 kts | 336° |
| 2026-04-26 00:52 | 53.99054 | -2.27196 | 22305 ft | 391 kts | 335° |
| 2026-04-26 00:53 | 54.01559 | -2.28921 | 22964 ft | 393 kts | 335° |
| 2026-04-26 00:53 | 54.04102 | -2.30675 | 23646 ft | 394 kts | 335° |
| 2026-04-26 00:53 | 54.06661 | -2.32444 | 24114 ft | 400 kts | 335° |
| 2026-04-26 00:53 | 54.09277 | -2.34258 | 24257 ft | 408 kts | 335° |
| 2026-04-26 00:54 | 54.11884 | -2.36066 | 24291 ft | 407 kts | 335° |
| 2026-04-26 00:54 | 54.14512 | -2.37890 | 24294 ft | 407 kts | 335° |
| 2026-04-26 00:54 | 54.17142 | -2.39718 | 24297 ft | 407 kts | 335° |
| 2026-04-26 00:54 | 54.19746 | -2.41527 | 24296 ft | 407 kts | 335° |
| 2026-04-26 00:55 | 54.22382 | -2.43359 | 24296 ft | 407 kts | 335° |
| 2026-04-26 00:55 | 54.24978 | -2.45166 | 24297 ft | 407 kts | 335° |
| 2026-04-26 00:55 | 54.27616 | -2.47005 | 24295 ft | 407 kts | 335° |
| 2026-04-26 00:55 | 54.30241 | -2.48838 | 24297 ft | 407 kts | 335° |
| 2026-04-26 00:56 | 54.32846 | -2.50659 | 24295 ft | 408 kts | 335° |
| 2026-04-26 00:56 | 54.35476 | -2.52501 | 24295 ft | 408 kts | 335° |
| 2026-04-26 00:56 | 54.38117 | -2.54353 | 24294 ft | 408 kts | 335° |
| 2026-04-26 00:56 | 54.40745 | -2.56198 | 24294 ft | 408 kts | 335° |
| 2026-04-26 00:57 | 54.43351 | -2.58030 | 24294 ft | 408 kts | 335° |
| 2026-04-26 00:57 | 54.45984 | -2.59884 | 24294 ft | 408 kts | 335° |
| 2026-04-26 00:57 | 54.48616 | -2.61740 | 24295 ft | 408 kts | 335° |
| 2026-04-26 00:57 | 54.51221 | -2.63579 | 24295 ft | 408 kts | 335° |
| 2026-04-26 00:58 | 54.53861 | -2.65448 | 24293 ft | 408 kts | 335° |
| 2026-04-26 00:58 | 54.56491 | -2.67313 | 24293 ft | 408 kts | 335° |
| 2026-04-26 00:58 | 54.59093 | -2.69160 | 24292 ft | 408 kts | 335° |
| 2026-04-26 00:58 | 54.61725 | -2.71030 | 24289 ft | 408 kts | 335° |
| 2026-04-26 00:59 | 54.64365 | -2.72910 | 24295 ft | 409 kts | 335° |
| 2026-04-26 00:59 | 54.66990 | -2.74780 | 24292 ft | 409 kts | 335° |
| 2026-04-26 00:59 | 54.69598 | -2.76642 | 24290 ft | 409 kts | 335° |
| 2026-04-26 00:59 | 54.72250 | -2.78537 | 24291 ft | 409 kts | 335° |
| 2026-04-26 01:00 | 54.74853 | -2.80400 | 24293 ft | 409 kts | 335° |
| 2026-04-26 01:00 | 54.77493 | -2.82292 | 24292 ft | 409 kts | 335° |
| 2026-04-26 01:00 | 54.80128 | -2.84183 | 24286 ft | 409 kts | 335° |
| 2026-04-26 01:00 | 54.82734 | -2.86056 | 24291 ft | 409 kts | 335° |
| 2026-04-26 01:01 | 54.85347 | -2.87936 | 24292 ft | 409 kts | 335° |
| 2026-04-26 01:01 | 54.87981 | -2.89835 | 24291 ft | 409 kts | 335° |
| 2026-04-26 01:01 | 54.90614 | -2.91736 | 24223 ft | 409 kts | 335° |
| 2026-04-26 01:01 | 54.93242 | -2.93636 | 23898 ft | 409 kts | 335° |
| 2026-04-26 01:02 | 54.95842 | -2.95518 | 23362 ft | 406 kts | 335° |
| 2026-04-26 01:02 | 54.98446 | -2.97405 | 22814 ft | 401 kts | 335° |
| 2026-04-26 01:02 | 55.01007 | -2.99263 | 22290 ft | 396 kts | 335° |
| 2026-04-26 01:02 | 55.03545 | -3.01108 | 21762 ft | 391 kts | 335° |
| 2026-04-26 01:03 | 55.06030 | -3.02919 | 21255 ft | 390 kts | 335° |
| 2026-04-26 01:03 | 55.08544 | -3.04753 | 20746 ft | 387 kts | 335° |
| 2026-04-26 01:03 | 55.10981 | -3.06532 | 20393 ft | 381 kts | 335° |
| 2026-04-26 01:03 | 55.13437 | -3.08328 | 20124 ft | 383 kts | 335° |
| 2026-04-26 01:04 | 55.15911 | -3.10141 | 19569 ft | 385 kts | 335° |
| 2026-04-26 01:04 | 55.18380 | -3.11951 | 18976 ft | 384 kts | 335° |
| 2026-04-26 01:04 | 55.20840 | -3.13756 | 18352 ft | 382 kts | 335° |
| 2026-04-26 01:04 | 55.23266 | -3.15539 | 17698 ft | 380 kts | 335° |
| 2026-04-26 01:05 | 55.25700 | -3.17331 | 17048 ft | 378 kts | 335° |
| 2026-04-26 01:05 | 55.28131 | -3.19087 | 16402 ft | 377 kts | 339° |
| 2026-04-26 01:05 | 55.30698 | -3.20058 | 15771 ft | 379 kts | 353° |
| 2026-04-26 01:05 | 55.33331 | -3.20010 | 15163 ft | 379 kts | 4° |
| 2026-04-26 01:06 | 55.35933 | -3.19524 | 14569 ft | 378 kts | 4° |
| 2026-04-26 01:06 | 55.38561 | -3.19081 | 13954 ft | 377 kts | 4° |
| 2026-04-26 01:06 | 55.41178 | -3.18663 | 13286 ft | 376 kts | 4° |
| 2026-04-26 01:06 | 55.43745 | -3.18261 | 12651 ft | 375 kts | 4° |
| 2026-04-26 01:07 | 55.46348 | -3.17856 | 11937 ft | 375 kts | 4° |
| 2026-04-26 01:07 | 55.48951 | -3.17449 | 11198 ft | 376 kts | 4° |
| 2026-04-26 01:07 | 55.51564 | -3.17041 | 10462 ft | 377 kts | 4° |
| 2026-04-26 01:07 | 55.54177 | -3.16630 | 9695 ft | 376 kts | 4° |
| 2026-04-26 01:08 | 55.56786 | -3.16220 | 8911 ft | 375 kts | 4° |
| 2026-04-26 01:08 | 55.59348 | -3.15817 | 8164 ft | 374 kts | 4° |
| 2026-04-26 01:08 | 55.61947 | -3.15407 | 7410 ft | 372 kts | 4° |
| 2026-04-26 01:08 | 55.64517 | -3.15002 | 6773 ft | 368 kts | 4° |
| 2026-04-26 01:09 | 55.67046 | -3.14605 | 6259 ft | 359 kts | 2° |
| 2026-04-26 01:09 | 55.69492 | -3.14969 | 5748 ft | 349 kts | 343° |
| 2026-04-26 01:09 | 55.71635 | -3.16822 | 5265 ft | 339 kts | 321° |
| 2026-04-26 01:09 | 55.73127 | -3.19824 | 5057 ft | 321 kts | 298° |
| 2026-04-26 01:10 | 55.73895 | -3.23424 | 5006 ft | 301 kts | 282° |
| 2026-04-26 01:10 | 55.74155 | -3.25794 | 4997 ft | 288 kts | 279° |
| 2026-04-26 01:10 | 55.74614 | -3.30238 | 4920 ft | 263 kts | 279° |
| 2026-04-26 01:10 | 55.74936 | -3.33324 | 4826 ft | 245 kts | 279° |
| 2026-04-26 01:11 | 55.75237 | -3.36218 | 4692 ft | 232 kts | 279° |
| 2026-04-26 01:11 | 55.75521 | -3.38019 | 4496 ft | 229 kts | 293° |
| 2026-04-26 01:11 | 55.76217 | -3.40562 | 4124 ft | 229 kts | 295° |
| 2026-04-26 01:11 | 55.77140 | -3.43826 | 3986 ft | 205 kts | 295° |
| 2026-04-26 01:12 | 55.77556 | -3.45292 | 3924 ft | 190 kts | 295° |
| 2026-04-26 01:12 | 55.78127 | -3.47321 | 3594 ft | 184 kts | 295° |
| 2026-04-26 01:12 | 55.78694 | -3.49361 | 3187 ft | 183 kts | 295° |
| 2026-04-26 01:12 | 55.79234 | -3.51305 | 3038 ft | 173 kts | 295° |
| 2026-04-26 01:13 | 55.79772 | -3.53254 | 2997 ft | 170 kts | 295° |
| 2026-04-26 01:13 | 55.80287 | -3.55118 | 2999 ft | 168 kts | 295° |
| 2026-04-26 01:13 | 55.80794 | -3.56954 | 2999 ft | 167 kts | 295° |
| 2026-04-26 01:13 | 55.81309 | -3.58819 | 2997 ft | 168 kts | 295° |
| 2026-04-26 01:14 | 55.81823 | -3.60682 | 3000 ft | 167 kts | 295° |
| 2026-04-26 01:14 | 55.82330 | -3.62520 | 3000 ft | 168 kts | 295° |
| 2026-04-26 01:14 | 55.82836 | -3.64356 | 2993 ft | 160 kts | 295° |
| 2026-04-26 01:14 | 55.83413 | -3.66011 | 2979 ft | 159 kts | 319° |
| 2026-04-26 01:15 | 55.84455 | -3.66413 | 2914 ft | 159 kts | 16° |
| 2026-04-26 01:15 | 55.85381 | -3.65396 | 2858 ft | 156 kts | 46° |
| 2026-04-26 01:15 | 55.86034 | -3.63914 | 2778 ft | 146 kts | 59° |
| 2026-04-26 01:15 | 55.86551 | -3.62382 | 2702 ft | 143 kts | 62° |
| 2026-04-26 01:16 | 55.87046 | -3.60885 | 2635 ft | 142 kts | 61° |
| 2026-04-26 01:16 | 55.87554 | -3.59375 | 2576 ft | 142 kts | 61° |
| 2026-04-26 01:16 | 55.88059 | -3.57869 | 2507 ft | 140 kts | 61° |
| 2026-04-26 01:16 | 55.88561 | -3.56374 | 2440 ft | 140 kts | 61° |
| 2026-04-26 01:17 | 55.89063 | -3.54881 | 2267 ft | 139 kts | 61° |
| 2026-04-26 01:17 | 55.89546 | -3.53445 | 2103 ft | 133 kts | 61° |
| 2026-04-26 01:17 | 55.90014 | -3.52053 | 1930 ft | 128 kts | 61° |
| 2026-04-26 01:17 | 55.90468 | -3.50702 | 1761 ft | 126 kts | 60° |
| 2026-04-26 01:18 | 55.90921 | -3.49355 | 1587 ft | 126 kts | 60° |
| 2026-04-26 01:18 | 55.91365 | -3.48036 | 1420 ft | 125 kts | 60° |
| 2026-04-26 01:18 | 55.91812 | -3.46701 | 1258 ft | 124 kts | 60° |
| 2026-04-26 01:18 | 55.92258 | -3.45365 | 1099 ft | 126 kts | 60° |
| 2026-04-26 01:19 | 55.92691 | -3.44050 | 932 ft | 123 kts | 60° |
| 2026-04-26 01:19 | 55.93139 | -3.42733 | 744 ft | 124 kts | 59° |
| 2026-04-26 01:19 | 55.93586 | -3.41431 | 525 ft | 123 kts | 58° |
| 2026-04-26 01:19 | 55.94028 | -3.40127 | 322 ft | 122 kts | 59° |
| 2026-04-26 01:20 | 55.94463 | -3.38844 | 180 ft | 122 kts | 60° |
| 2026-04-26 01:20 | 55.94879 | -3.37598 | 113 ft | 101 kts | 57° |
| 2026-04-26 01:20 | 55.95089 | -3.36991 | 113 ft | 14 kts | 59° |
| 2026-04-26 01:20 | 55.95138 | -3.36845 | 113 ft | 25 kts | 59° |
| 2026-04-26 01:21 | 55.95238 | -3.36560 | 109 ft | 30 kts | 60° |
| 2026-04-26 01:21 | 55.95140 | -3.36318 | 109 ft | 29 kts | 191° |
| 2026-04-26 01:21 | 55.94987 | -3.36378 | 108 ft | 21 kts | 150° |
| 2026-04-26 01:21 | 55.94939 | -3.36344 | 108 ft | 0 kts | 164° |